sensor_id;sensor_type;location;lat;lon;timestamp;P1;durP1;ratioP1;P2;durP2;ratioP2
33022;SDS011;19390;51.460;5.710;2022-09-02T00:00:49;2.90;;;1.60;;
33022;SDS011;19390;51.460;5.710;2022-09-02T00:03:24;5.72;;;1.48;;
33022;SDS011;19390;51.460;5.710;2022-09-02T00:05:51;3.88;;;1.70;;
33022;SDS011;19390;51.460;5.710;2022-09-02T00:08:16;4.53;;;1.58;;
33022;SDS011;19390;51.460;5.710;2022-09-02T00:10:43;2.67;;;1.40;;
33022;SDS011;19390;51.460;5.710;2022-09-02T00:13:10;3.67;;;1.50;;
33022;SDS011;19390;51.460;5.710;2022-09-02T00:15:39;2.83;;;1.20;;
33022;SDS011;19390;51.460;5.710;2022-09-02T00:18:05;6.07;;;1.70;;
33022;SDS011;19390;51.460;5.710;2022-09-02T00:20:31;3.00;;;1.50;;
33022;SDS011;19390;51.460;5.710;2022-09-02T00:22:57;2.70;;;1.50;;
33022;SDS011;19390;51.460;5.710;2022-09-02T00:25:24;3.50;;;1.63;;
33022;SDS011;19390;51.460;5.710;2022-09-02T00:27:50;3.67;;;1.50;;
33022;SDS011;19390;51.460;5.710;2022-09-02T00:30:16;5.75;;;1.38;;
33022;SDS011;19390;51.460;5.710;2022-09-02T00:32:42;3.20;;;1.50;;
33022;SDS011;19390;51.460;5.710;2022-09-02T00:35:08;4.45;;;1.60;;
33022;SDS011;19390;51.460;5.710;2022-09-02T00:37:35;5.15;;;1.42;;
33022;SDS011;19390;51.460;5.710;2022-09-02T00:40:01;5.05;;;1.60;;
33022;SDS011;19390;51.460;5.710;2022-09-02T00:42:28;5.78;;;1.55;;
33022;SDS011;19390;51.460;5.710;2022-09-02T00:44:54;4.20;;;1.60;;
33022;SDS011;19390;51.460;5.710;2022-09-02T00:47:20;13.63;;;2.25;;
33022;SDS011;19390;51.460;5.710;2022-09-02T00:49:47;3.47;;;1.50;;
33022;SDS011;19390;51.460;5.710;2022-09-02T00:52:18;3.10;;;1.65;;
33022;SDS011;19390;51.460;5.710;2022-09-02T00:55:04;3.53;;;1.75;;
33022;SDS011;19390;51.460;5.710;2022-09-02T00:57:45;4.63;;;1.33;;
33022;SDS011;19390;51.460;5.710;2022-09-02T01:00:22;6.57;;;1.48;;
33022;SDS011;19390;51.460;5.710;2022-09-02T01:02:54;3.00;;;1.83;;
33022;SDS011;19390;51.460;5.710;2022-09-02T01:05:23;5.00;;;1.88;;
33022;SDS011;19390;51.460;5.710;2022-09-02T01:07:51;4.13;;;1.45;;
33022;SDS011;19390;51.460;5.710;2022-09-02T01:10:20;7.45;;;1.63;;
33022;SDS011;19390;51.460;5.710;2022-09-02T01:12:59;2.63;;;1.55;;
33022;SDS011;19390;51.460;5.710;2022-09-02T01:15:35;3.13;;;1.40;;
33022;SDS011;19390;51.460;5.710;2022-09-02T01:18:08;2.45;;;1.80;;
33022;SDS011;19390;51.460;5.710;2022-09-02T01:20:38;3.55;;;1.73;;
33022;SDS011;19390;51.460;5.710;2022-09-02T01:23:04;4.82;;;1.75;;
33022;SDS011;19390;51.460;5.710;2022-09-02T01:25:31;4.85;;;1.90;;
33022;SDS011;19390;51.460;5.710;2022-09-02T01:27:59;4.78;;;1.38;;
33022;SDS011;19390;51.460;5.710;2022-09-02T01:30:26;2.72;;;1.50;;
33022;SDS011;19390;51.460;5.710;2022-09-02T01:32:53;5.55;;;1.67;;
33022;SDS011;19390;51.460;5.710;2022-09-02T01:35:19;2.42;;;1.52;;
33022;SDS011;19390;51.460;5.710;2022-09-02T01:37:45;4.70;;;1.98;;
33022;SDS011;19390;51.460;5.710;2022-09-02T01:40:14;6.13;;;1.73;;
33022;SDS011;19390;51.460;5.710;2022-09-02T01:42:41;2.90;;;1.50;;
33022;SDS011;19390;51.460;5.710;2022-09-02T01:45:08;3.15;;;1.77;;
33022;SDS011;19390;51.460;5.710;2022-09-02T01:47:34;5.82;;;1.70;;
33022;SDS011;19390;51.460;5.710;2022-09-02T01:50:00;5.90;;;1.95;;
33022;SDS011;19390;51.460;5.710;2022-09-02T01:52:26;8.15;;;1.88;;
33022;SDS011;19390;51.460;5.710;2022-09-02T01:54:53;3.00;;;1.60;;
33022;SDS011;19390;51.460;5.710;2022-09-02T01:57:19;3.50;;;1.65;;
33022;SDS011;19390;51.460;5.710;2022-09-02T01:59:47;2.80;;;1.42;;
33022;SDS011;19390;51.460;5.710;2022-09-02T02:02:13;3.28;;;1.70;;
33022;SDS011;19390;51.460;5.710;2022-09-02T02:04:38;5.50;;;1.98;;
33022;SDS011;19390;51.460;5.710;2022-09-02T02:07:04;3.30;;;2.00;;
33022;SDS011;19390;51.460;5.710;2022-09-02T02:09:30;3.28;;;1.90;;
33022;SDS011;19390;51.460;5.710;2022-09-02T02:11:56;6.25;;;2.00;;
33022;SDS011;19390;51.460;5.710;2022-09-02T02:14:22;7.03;;;2.10;;
33022;SDS011;19390;51.460;5.710;2022-09-02T02:16:48;5.55;;;2.10;;
33022;SDS011;19390;51.460;5.710;2022-09-02T02:19:14;3.55;;;2.15;;
33022;SDS011;19390;51.460;5.710;2022-09-02T02:21:40;5.65;;;1.83;;
33022;SDS011;19390;51.460;5.710;2022-09-02T02:24:06;6.07;;;2.10;;
33022;SDS011;19390;51.460;5.710;2022-09-02T02:26:32;7.10;;;2.20;;
33022;SDS011;19390;51.460;5.710;2022-09-02T02:28:58;4.47;;;1.90;;
33022;SDS011;19390;51.460;5.710;2022-09-02T02:31:24;4.78;;;2.20;;
33022;SDS011;19390;51.460;5.710;2022-09-02T02:33:50;5.38;;;2.10;;
33022;SDS011;19390;51.460;5.710;2022-09-02T02:36:16;4.57;;;2.08;;
33022;SDS011;19390;51.460;5.710;2022-09-02T02:38:42;8.32;;;2.00;;
33022;SDS011;19390;51.460;5.710;2022-09-02T02:41:10;6.45;;;2.40;;
33022;SDS011;19390;51.460;5.710;2022-09-02T02:43:37;6.72;;;2.63;;
33022;SDS011;19390;51.460;5.710;2022-09-02T02:46:02;5.15;;;2.35;;
33022;SDS011;19390;51.460;5.710;2022-09-02T02:48:29;4.80;;;2.40;;
33022;SDS011;19390;51.460;5.710;2022-09-02T02:50:55;7.00;;;2.35;;
33022;SDS011;19390;51.460;5.710;2022-09-02T02:53:21;5.78;;;2.40;;
33022;SDS011;19390;51.460;5.710;2022-09-02T02:55:46;4.28;;;2.22;;
33022;SDS011;19390;51.460;5.710;2022-09-02T02:58:12;5.72;;;2.13;;
33022;SDS011;19390;51.460;5.710;2022-09-02T03:00:38;5.07;;;2.58;;
33022;SDS011;19390;51.460;5.710;2022-09-02T03:03:05;8.05;;;2.58;;
33022;SDS011;19390;51.460;5.710;2022-09-02T03:05:33;6.15;;;2.88;;
33022;SDS011;19390;51.460;5.710;2022-09-02T03:08:02;5.32;;;2.90;;
33022;SDS011;19390;51.460;5.710;2022-09-02T03:10:28;7.88;;;3.00;;
33022;SDS011;19390;51.460;5.710;2022-09-02T03:12:57;4.75;;;2.67;;
33022;SDS011;19390;51.460;5.710;2022-09-02T03:15:24;7.50;;;3.85;;
33022;SDS011;19390;51.460;5.710;2022-09-02T03:17:50;9.50;;;4.05;;
33022;SDS011;19390;51.460;5.710;2022-09-02T03:20:17;10.07;;;3.67;;
33022;SDS011;19390;51.460;5.710;2022-09-02T03:22:43;13.55;;;5.35;;
33022;SDS011;19390;51.460;5.710;2022-09-02T03:25:13;11.40;;;5.53;;
33022;SDS011;19390;51.460;5.710;2022-09-02T03:27:40;14.45;;;5.93;;
33022;SDS011;19390;51.460;5.710;2022-09-02T03:30:10;17.63;;;8.27;;
33022;SDS011;19390;51.460;5.710;2022-09-02T03:32:38;19.67;;;8.70;;
33022;SDS011;19390;51.460;5.710;2022-09-02T03:35:05;24.05;;;11.40;;
33022;SDS011;19390;51.460;5.710;2022-09-02T03:37:32;30.65;;;14.50;;
33022;SDS011;19390;51.460;5.710;2022-09-02T03:40:05;25.27;;;12.98;;
33022;SDS011;19390;51.460;5.710;2022-09-02T03:42:34;32.65;;;13.80;;
33022;SDS011;19390;51.460;5.710;2022-09-02T03:44:59;28.20;;;12.70;;
33022;SDS011;19390;51.460;5.710;2022-09-02T03:47:25;24.27;;;12.02;;
33022;SDS011;19390;51.460;5.710;2022-09-02T03:49:54;29.25;;;11.85;;
33022;SDS011;19390;51.460;5.710;2022-09-02T03:52:19;20.05;;;9.68;;
33022;SDS011;19390;51.460;5.710;2022-09-02T03:54:45;24.05;;;10.90;;
33022;SDS011;19390;51.460;5.710;2022-09-02T03:57:11;21.77;;;9.27;;
33022;SDS011;19390;51.460;5.710;2022-09-02T03:59:37;21.50;;;9.98;;
33022;SDS011;19390;51.460;5.710;2022-09-02T04:02:03;22.05;;;10.00;;
33022;SDS011;19390;51.460;5.710;2022-09-02T04:04:28;16.52;;;8.35;;
33022;SDS011;19390;51.460;5.710;2022-09-02T04:06:54;20.30;;;8.80;;
33022;SDS011;19390;51.460;5.710;2022-09-02T04:09:20;19.33;;;7.35;;
33022;SDS011;19390;51.460;5.710;2022-09-02T04:11:46;12.85;;;6.97;;
33022;SDS011;19390;51.460;5.710;2022-09-02T04:14:12;18.25;;;7.45;;
33022;SDS011;19390;51.460;5.710;2022-09-02T04:16:38;18.45;;;9.73;;
33022;SDS011;19390;51.460;5.710;2022-09-02T04:19:04;17.50;;;8.88;;
33022;SDS011;19390;51.460;5.710;2022-09-02T04:21:32;17.15;;;9.00;;
33022;SDS011;19390;51.460;5.710;2022-09-02T04:23:58;23.23;;;10.02;;
33022;SDS011;19390;51.460;5.710;2022-09-02T04:26:23;17.67;;;7.55;;
33022;SDS011;19390;51.460;5.710;2022-09-02T04:28:49;15.32;;;7.22;;
33022;SDS011;19390;51.460;5.710;2022-09-02T04:31:18;14.23;;;5.97;;
33022;SDS011;19390;51.460;5.710;2022-09-02T04:33:45;15.52;;;6.90;;
33022;SDS011;19390;51.460;5.710;2022-09-02T04:36:12;19.88;;;9.27;;
33022;SDS011;19390;51.460;5.710;2022-09-02T04:38:39;27.48;;;13.05;;
33022;SDS011;19390;51.460;5.710;2022-09-02T04:41:09;29.45;;;13.73;;
33022;SDS011;19390;51.460;5.710;2022-09-02T04:43:39;28.15;;;12.90;;
33022;SDS011;19390;51.460;5.710;2022-09-02T04:46:06;26.33;;;14.93;;
33022;SDS011;19390;51.460;5.710;2022-09-02T04:48:33;28.67;;;13.43;;
33022;SDS011;19390;51.460;5.710;2022-09-02T04:51:14;31.95;;;13.93;;
33022;SDS011;19390;51.460;5.710;2022-09-02T04:53:42;31.73;;;14.65;;
33022;SDS011;19390;51.460;5.710;2022-09-02T04:56:10;37.72;;;15.57;;
33022;SDS011;19390;51.460;5.710;2022-09-02T04:58:39;37.53;;;18.58;;
33022;SDS011;19390;51.460;5.710;2022-09-02T05:01:06;40.90;;;19.25;;
33022;SDS011;19390;51.460;5.710;2022-09-02T05:03:33;44.10;;;19.58;;
33022;SDS011;19390;51.460;5.710;2022-09-02T05:06:01;43.75;;;20.63;;
33022;SDS011;19390;51.460;5.710;2022-09-02T05:08:28;43.20;;;20.17;;
33022;SDS011;19390;51.460;5.710;2022-09-02T05:10:54;51.42;;;23.20;;
33022;SDS011;19390;51.460;5.710;2022-09-02T05:13:20;46.17;;;22.20;;
33022;SDS011;19390;51.460;5.710;2022-09-02T05:15:47;49.83;;;22.42;;
33022;SDS011;19390;51.460;5.710;2022-09-02T05:18:13;43.72;;;20.33;;
33022;SDS011;19390;51.460;5.710;2022-09-02T05:20:39;50.28;;;22.27;;
33022;SDS011;19390;51.460;5.710;2022-09-02T05:23:07;46.63;;;21.98;;
33022;SDS011;19390;51.460;5.710;2022-09-02T05:25:35;41.58;;;20.73;;
33022;SDS011;19390;51.460;5.710;2022-09-02T05:28:02;46.85;;;21.08;;
33022;SDS011;19390;51.460;5.710;2022-09-02T05:30:28;41.80;;;21.17;;
33022;SDS011;19390;51.460;5.710;2022-09-02T05:32:53;44.92;;;20.27;;
33022;SDS011;19390;51.460;5.710;2022-09-02T05:35:19;48.55;;;23.50;;
33022;SDS011;19390;51.460;5.710;2022-09-02T05:37:45;60.60;;;25.83;;
33022;SDS011;19390;51.460;5.710;2022-09-02T05:40:11;49.17;;;25.50;;
33022;SDS011;19390;51.460;5.710;2022-09-02T05:42:37;58.47;;;26.00;;
33022;SDS011;19390;51.460;5.710;2022-09-02T05:45:04;58.92;;;29.02;;
33022;SDS011;19390;51.460;5.710;2022-09-02T05:47:32;60.50;;;29.17;;
33022;SDS011;19390;51.460;5.710;2022-09-02T05:49:58;76.53;;;35.30;;
33022;SDS011;19390;51.460;5.710;2022-09-02T05:52:26;72.32;;;35.08;;
33022;SDS011;19390;51.460;5.710;2022-09-02T05:54:52;74.72;;;33.88;;
33022;SDS011;19390;51.460;5.710;2022-09-02T05:57:18;76.18;;;34.17;;
33022;SDS011;19390;51.460;5.710;2022-09-02T05:59:45;80.75;;;36.97;;
33022;SDS011;19390;51.460;5.710;2022-09-02T06:02:14;82.07;;;37.22;;
33022;SDS011;19390;51.460;5.710;2022-09-02T06:04:42;75.20;;;35.42;;
33022;SDS011;19390;51.460;5.710;2022-09-02T06:07:13;77.85;;;38.28;;
33022;SDS011;19390;51.460;5.710;2022-09-02T06:09:40;84.15;;;39.63;;
33022;SDS011;19390;51.460;5.710;2022-09-02T06:12:08;90.30;;;43.25;;
33022;SDS011;19390;51.460;5.710;2022-09-02T06:14:35;93.10;;;43.13;;
33022;SDS011;19390;51.460;5.710;2022-09-02T06:17:02;87.75;;;42.28;;
33022;SDS011;19390;51.460;5.710;2022-09-02T06:19:28;82.53;;;39.22;;
33022;SDS011;19390;51.460;5.710;2022-09-02T06:21:55;84.43;;;38.08;;
33022;SDS011;19390;51.460;5.710;2022-09-02T06:24:21;86.72;;;40.13;;
33022;SDS011;19390;51.460;5.710;2022-09-02T06:26:48;85.97;;;39.08;;
33022;SDS011;19390;51.460;5.710;2022-09-02T06:29:14;84.30;;;38.65;;
33022;SDS011;19390;51.460;5.710;2022-09-02T06:31:43;86.70;;;38.55;;
33022;SDS011;19390;51.460;5.710;2022-09-02T06:34:11;78.85;;;37.33;;
33022;SDS011;19390;51.460;5.710;2022-09-02T06:36:40;78.68;;;34.03;;
33022;SDS011;19390;51.460;5.710;2022-09-02T06:39:09;76.45;;;34.67;;
33022;SDS011;19390;51.460;5.710;2022-09-02T06:41:36;78.40;;;34.50;;
33022;SDS011;19390;51.460;5.710;2022-09-02T06:44:04;67.30;;;32.08;;
33022;SDS011;19390;51.460;5.710;2022-09-02T06:46:32;65.57;;;31.67;;
33022;SDS011;19390;51.460;5.710;2022-09-02T06:49:02;77.03;;;33.58;;
33022;SDS011;19390;51.460;5.710;2022-09-02T06:51:36;79.22;;;35.78;;
33022;SDS011;19390;51.460;5.710;2022-09-02T06:54:06;75.90;;;36.58;;
33022;SDS011;19390;51.460;5.710;2022-09-02T06:56:34;76.30;;;35.42;;
33022;SDS011;19390;51.460;5.710;2022-09-02T06:59:00;73.38;;;34.05;;
33022;SDS011;19390;51.460;5.710;2022-09-02T14:09:41;7.60;;;2.03;;
33022;SDS011;19390;51.460;5.710;2022-09-02T14:12:08;3.63;;;1.40;;
33022;SDS011;19390;51.460;5.710;2022-09-02T14:14:34;6.07;;;2.00;;
33022;SDS011;19390;51.460;5.710;2022-09-02T14:19:48;9.05;;;4.07;;
33022;SDS011;19390;51.460;5.710;2022-09-02T14:22:22;11.82;;;4.55;;
33022;SDS011;19390;51.460;5.710;2022-09-02T14:24:52;6.28;;;2.28;;
33022;SDS011;19390;51.460;5.710;2022-09-02T14:27:19;4.63;;;1.88;;
33022;SDS011;19390;51.460;5.710;2022-09-02T14:29:46;4.05;;;1.55;;
33022;SDS011;19390;51.460;5.710;2022-09-02T14:32:23;4.70;;;1.25;;
33022;SDS011;19390;51.460;5.710;2022-09-02T14:35:07;1.80;;;1.13;;
33022;SDS011;19390;51.460;5.710;2022-09-02T14:37:54;2.60;;;1.52;;
33022;SDS011;19390;51.460;5.710;2022-09-02T14:40:36;7.75;;;1.85;;
33022;SDS011;19390;51.460;5.710;2022-09-02T14:43:03;6.20;;;1.58;;
33022;SDS011;19390;51.460;5.710;2022-09-02T14:45:40;6.00;;;1.85;;
33022;SDS011;19390;51.460;5.710;2022-09-02T14:48:21;7.38;;;2.20;;
33022;SDS011;19390;51.460;5.710;2022-09-02T14:50:56;9.50;;;2.67;;
33022;SDS011;19390;51.460;5.710;2022-09-02T14:53:24;5.47;;;2.30;;
33022;SDS011;19390;51.460;5.710;2022-09-02T14:55:51;8.18;;;2.33;;
33022;SDS011;19390;51.460;5.710;2022-09-02T14:58:19;11.35;;;5.53;;
33022;SDS011;19390;51.460;5.710;2022-09-02T15:00:47;7.15;;;4.13;;
33022;SDS011;19390;51.460;5.710;2022-09-02T15:03:17;7.57;;;4.20;;
33022;SDS011;19390;51.460;5.710;2022-09-02T15:05:44;8.05;;;3.42;;
33022;SDS011;19390;51.460;5.710;2022-09-02T15:08:10;12.07;;;3.03;;
33022;SDS011;19390;51.460;5.710;2022-09-02T15:10:36;5.10;;;3.20;;
33022;SDS011;19390;51.460;5.710;2022-09-02T15:13:06;9.75;;;2.10;;
33022;SDS011;19390;51.460;5.710;2022-09-02T15:15:36;5.50;;;1.92;;
33022;SDS011;19390;51.460;5.710;2022-09-02T15:18:02;3.50;;;2.15;;
33022;SDS011;19390;51.460;5.710;2022-09-02T15:20:29;12.45;;;3.95;;
33022;SDS011;19390;51.460;5.710;2022-09-02T15:22:57;7.45;;;3.28;;
33022;SDS011;19390;51.460;5.710;2022-09-02T15:25:24;4.95;;;2.20;;
33022;SDS011;19390;51.460;5.710;2022-09-02T15:27:49;3.13;;;1.75;;
33022;SDS011;19390;51.460;5.710;2022-09-02T15:30:15;7.85;;;2.13;;
33022;SDS011;19390;51.460;5.710;2022-09-02T15:32:41;3.78;;;1.83;;
33022;SDS011;19390;51.460;5.710;2022-09-02T15:35:07;8.40;;;2.88;;
33022;SDS011;19390;51.460;5.710;2022-09-02T15:37:33;9.32;;;3.50;;
33022;SDS011;19390;51.460;5.710;2022-09-02T15:40:02;14.23;;;5.80;;
33022;SDS011;19390;51.460;5.710;2022-09-02T15:42:31;9.27;;;4.40;;
33022;SDS011;19390;51.460;5.710;2022-09-02T15:45:02;6.75;;;2.92;;
33022;SDS011;19390;51.460;5.710;2022-09-02T15:47:28;3.50;;;2.22;;
33022;SDS011;19390;51.460;5.710;2022-09-02T15:49:55;3.30;;;1.10;;
33022;SDS011;19390;51.460;5.710;2022-09-02T15:52:23;4.35;;;1.42;;
33022;SDS011;19390;51.460;5.710;2022-09-02T15:54:50;4.72;;;1.50;;
33022;SDS011;19390;51.460;5.710;2022-09-02T15:57:17;10.10;;;3.60;;
33022;SDS011;19390;51.460;5.710;2022-09-02T15:59:43;6.75;;;3.95;;
33022;SDS011;19390;51.460;5.710;2022-09-02T16:02:08;5.80;;;1.70;;
33022;SDS011;19390;51.460;5.710;2022-09-02T16:04:34;4.07;;;1.63;;
33022;SDS011;19390;51.460;5.710;2022-09-02T16:06:59;3.20;;;1.40;;
33022;SDS011;19390;51.460;5.710;2022-09-02T16:09:25;8.07;;;2.58;;
33022;SDS011;19390;51.460;5.710;2022-09-02T16:11:51;5.00;;;2.13;;
33022;SDS011;19390;51.460;5.710;2022-09-02T16:14:18;5.85;;;1.95;;
33022;SDS011;19390;51.460;5.710;2022-09-02T16:16:44;6.13;;;2.42;;
33022;SDS011;19390;51.460;5.710;2022-09-02T16:19:10;4.70;;;1.75;;
33022;SDS011;19390;51.460;5.710;2022-09-02T16:21:37;6.43;;;1.80;;
33022;SDS011;19390;51.460;5.710;2022-09-02T16:24:03;5.32;;;1.40;;
33022;SDS011;19390;51.460;5.710;2022-09-02T16:26:30;2.70;;;1.45;;
33022;SDS011;19390;51.460;5.710;2022-09-02T16:28:58;3.83;;;1.65;;
33022;SDS011;19390;51.460;5.710;2022-09-02T16:31:25;3.25;;;1.88;;
33022;SDS011;19390;51.460;5.710;2022-09-02T16:33:54;3.92;;;1.35;;
33022;SDS011;19390;51.460;5.710;2022-09-02T16:36:21;8.75;;;3.65;;
33022;SDS011;19390;51.460;5.710;2022-09-02T16:38:48;9.48;;;3.88;;
33022;SDS011;19390;51.460;5.710;2022-09-02T16:41:26;6.28;;;2.10;;
33022;SDS011;19390;51.460;5.710;2022-09-02T16:44:00;7.07;;;1.45;;
33022;SDS011;19390;51.460;5.710;2022-09-02T16:46:29;5.05;;;2.13;;
33022;SDS011;19390;51.460;5.710;2022-09-02T16:48:55;4.40;;;2.72;;
33022;SDS011;19390;51.460;5.710;2022-09-02T16:51:21;3.97;;;2.10;;
33022;SDS011;19390;51.460;5.710;2022-09-02T16:53:51;2.60;;;1.73;;
33022;SDS011;19390;51.460;5.710;2022-09-02T16:56:24;5.03;;;1.73;;
33022;SDS011;19390;51.460;5.710;2022-09-02T16:58:51;1.83;;;1.33;;
33022;SDS011;19390;51.460;5.710;2022-09-02T17:01:18;3.28;;;0.90;;
33022;SDS011;19390;51.460;5.710;2022-09-02T17:03:45;7.22;;;1.20;;
33022;SDS011;19390;51.460;5.710;2022-09-02T17:06:12;1.80;;;1.30;;
33022;SDS011;19390;51.460;5.710;2022-09-02T17:08:37;3.47;;;1.30;;
33022;SDS011;19390;51.460;5.710;2022-09-02T17:11:18;1.50;;;1.20;;
33022;SDS011;19390;51.460;5.710;2022-09-02T17:14:01;4.95;;;1.35;;
33022;SDS011;19390;51.460;5.710;2022-09-02T17:16:33;1.58;;;1.23;;
33022;SDS011;19390;51.460;5.710;2022-09-02T17:19:01;8.00;;;1.42;;
33022;SDS011;19390;51.460;5.710;2022-09-02T17:21:35;2.78;;;1.15;;
33022;SDS011;19390;51.460;5.710;2022-09-02T17:24:04;1.77;;;1.00;;
33022;SDS011;19390;51.460;5.710;2022-09-02T17:26:31;2.30;;;1.10;;
33022;SDS011;19390;51.460;5.710;2022-09-02T17:29:00;2.95;;;1.10;;
33022;SDS011;19390;51.460;5.710;2022-09-02T17:31:32;2.75;;;1.00;;
33022;SDS011;19390;51.460;5.710;2022-09-02T17:33:59;5.65;;;1.17;;
33022;SDS011;19390;51.460;5.710;2022-09-02T17:36:27;1.38;;;0.98;;
33022;SDS011;19390;51.460;5.710;2022-09-02T17:38:54;2.78;;;1.20;;
33022;SDS011;19390;51.460;5.710;2022-09-02T17:41:22;3.97;;;1.20;;
33022;SDS011;19390;51.460;5.710;2022-09-02T17:44:07;6.10;;;1.17;;
33022;SDS011;19390;51.460;5.710;2022-09-02T17:46:33;5.18;;;1.25;;
33022;SDS011;19390;51.460;5.710;2022-09-02T17:48:58;2.20;;;1.20;;
33022;SDS011;19390;51.460;5.710;2022-09-02T17:51:24;1.70;;;1.13;;
33022;SDS011;19390;51.460;5.710;2022-09-02T17:53:50;4.65;;;1.20;;
33022;SDS011;19390;51.460;5.710;2022-09-02T17:59:14;3.08;;;1.15;;
33022;SDS011;19390;51.460;5.710;2022-09-02T18:02:11;5.38;;;1.25;;
33022;SDS011;19390;51.460;5.710;2022-09-02T18:04:38;2.15;;;1.10;;
33022;SDS011;19390;51.460;5.710;2022-09-02T18:10:33;6.38;;;1.40;;
33022;SDS011;19390;51.460;5.710;2022-09-02T18:13:11;5.72;;;1.10;;
33022;SDS011;19390;51.460;5.710;2022-09-02T18:18:49;3.95;;;1.60;;
33022;SDS011;19390;51.460;5.710;2022-09-02T18:24:26;2.97;;;1.40;;
33022;SDS011;19390;51.460;5.710;2022-09-02T18:29:55;2.80;;;1.40;;
33022;SDS011;19390;51.460;5.710;2022-09-02T18:35:43;4.15;;;1.60;;
33022;SDS011;19390;51.460;5.710;2022-09-02T18:41:08;5.93;;;1.48;;
33022;SDS011;19390;51.460;5.710;2022-09-02T18:49:17;8.40;;;1.25;;
33022;SDS011;19390;51.460;5.710;2022-09-02T18:51:45;2.42;;;1.45;;
33022;SDS011;19390;51.460;5.710;2022-09-02T18:56:48;8.32;;;1.73;;
33022;SDS011;19390;51.460;5.710;2022-09-02T18:59:30;7.22;;;1.55;;
33022;SDS011;19390;51.460;5.710;2022-09-02T19:02:19;5.50;;;1.83;;
33022;SDS011;19390;51.460;5.710;2022-09-02T19:04:49;3.70;;;1.75;;
33022;SDS011;19390;51.460;5.710;2022-09-02T19:07:16;5.53;;;1.77;;
33022;SDS011;19390;51.460;5.710;2022-09-02T19:10:03;4.18;;;1.33;;
33022;SDS011;19390;51.460;5.710;2022-09-02T19:12:30;3.40;;;1.65;;
33022;SDS011;19390;51.460;5.710;2022-09-02T19:14:58;5.72;;;1.50;;
33022;SDS011;19390;51.460;5.710;2022-09-02T19:17:24;3.35;;;1.70;;
33022;SDS011;19390;51.460;5.710;2022-09-02T19:19:49;5.68;;;1.95;;
33022;SDS011;19390;51.460;5.710;2022-09-02T19:22:15;8.07;;;1.73;;
33022;SDS011;19390;51.460;5.710;2022-09-02T19:24:47;4.78;;;1.35;;
33022;SDS011;19390;51.460;5.710;2022-09-02T19:27:21;6.63;;;1.52;;
33022;SDS011;19390;51.460;5.710;2022-09-02T19:30:02;8.85;;;1.92;;
33022;SDS011;19390;51.460;5.710;2022-09-02T19:32:31;8.50;;;1.83;;
33022;SDS011;19390;51.460;5.710;2022-09-02T19:35:01;11.00;;;2.00;;
33022;SDS011;19390;51.460;5.710;2022-09-02T19:37:40;4.25;;;1.88;;
33022;SDS011;19390;51.460;5.710;2022-09-02T19:40:17;11.30;;;2.15;;
33022;SDS011;19390;51.460;5.710;2022-09-02T19:42:47;28.00;;;12.73;;
33022;SDS011;19390;51.460;5.710;2022-09-02T19:45:15;9.93;;;4.13;;
33022;SDS011;19390;51.460;5.710;2022-09-02T19:47:41;6.35;;;1.75;;
33022;SDS011;19390;51.460;5.710;2022-09-02T19:50:07;9.77;;;1.70;;
33022;SDS011;19390;51.460;5.710;2022-09-02T19:52:42;4.40;;;1.50;;
33022;SDS011;19390;51.460;5.710;2022-09-02T19:55:10;7.70;;;1.80;;
33022;SDS011;19390;51.460;5.710;2022-09-02T19:57:38;4.32;;;1.48;;
33022;SDS011;19390;51.460;5.710;2022-09-02T20:00:04;6.65;;;1.50;;
33022;SDS011;19390;51.460;5.710;2022-09-02T20:02:31;5.60;;;1.40;;
33022;SDS011;19390;51.460;5.710;2022-09-02T20:04:57;9.45;;;2.10;;
33022;SDS011;19390;51.460;5.710;2022-09-02T20:07:23;4.55;;;1.70;;
33022;SDS011;19390;51.460;5.710;2022-09-02T20:09:49;6.68;;;1.80;;
33022;SDS011;19390;51.460;5.710;2022-09-02T20:12:16;3.65;;;2.00;;
33022;SDS011;19390;51.460;5.710;2022-09-02T20:14:41;4.57;;;1.65;;
33022;SDS011;19390;51.460;5.710;2022-09-02T20:17:08;3.17;;;1.67;;
33022;SDS011;19390;51.460;5.710;2022-09-02T20:19:38;9.38;;;1.50;;
33022;SDS011;19390;51.460;5.710;2022-09-02T20:22:06;5.63;;;1.67;;
33022;SDS011;19390;51.460;5.710;2022-09-02T20:24:34;6.90;;;1.30;;
33022;SDS011;19390;51.460;5.710;2022-09-02T20:27:03;4.68;;;1.40;;
33022;SDS011;19390;51.460;5.710;2022-09-02T20:29:55;7.28;;;2.42;;
33022;SDS011;19390;51.460;5.710;2022-09-02T20:32:48;5.43;;;2.60;;
33022;SDS011;19390;51.460;5.710;2022-09-02T20:52:17;12.25;;;7.13;;
33022;SDS011;19390;51.460;5.710;2022-09-02T20:55:06;13.93;;;9.50;;
33022;SDS011;19390;51.460;5.710;2022-09-02T21:00:51;10.57;;;5.38;;
33022;SDS011;19390;51.460;5.710;2022-09-02T21:03:46;4.18;;;2.70;;
33022;SDS011;19390;51.460;5.710;2022-09-02T21:06:41;5.47;;;3.40;;
33022;SDS011;19390;51.460;5.710;2022-09-02T21:09:28;4.97;;;2.20;;
33022;SDS011;19390;51.460;5.710;2022-09-02T21:14:56;5.88;;;2.00;;
33022;SDS011;19390;51.460;5.710;2022-09-02T21:20:06;2.72;;;2.28;;
33022;SDS011;19390;51.460;5.710;2022-09-02T21:22:34;5.90;;;1.85;;
33022;SDS011;19390;51.460;5.710;2022-09-02T21:25:08;3.83;;;1.77;;
33022;SDS011;19390;51.460;5.710;2022-09-02T21:27:49;3.80;;;1.70;;
33022;SDS011;19390;51.460;5.710;2022-09-02T21:30:20;6.25;;;1.85;;
33022;SDS011;19390;51.460;5.710;2022-09-02T21:37:44;3.45;;;1.75;;
33022;SDS011;19390;51.460;5.710;2022-09-02T21:40:15;4.90;;;1.75;;
33022;SDS011;19390;51.460;5.710;2022-09-02T21:50:42;4.97;;;2.33;;
33022;SDS011;19390;51.460;5.710;2022-09-02T21:55:56;4.63;;;2.70;;
33022;SDS011;19390;51.460;5.710;2022-09-02T22:03:44;4.55;;;2.20;;
33022;SDS011;19390;51.460;5.710;2022-09-02T22:11:12;5.78;;;3.15;;
33022;SDS011;19390;51.460;5.710;2022-09-02T22:13:39;4.55;;;3.28;;
33022;SDS011;19390;51.460;5.710;2022-09-02T22:16:25;5.97;;;4.13;;
33022;SDS011;19390;51.460;5.710;2022-09-02T22:19:03;4.95;;;4.30;;
33022;SDS011;19390;51.460;5.710;2022-09-02T22:24:27;7.63;;;4.60;;
33022;SDS011;19390;51.460;5.710;2022-09-02T22:29:45;18.33;;;10.45;;
33022;SDS011;19390;51.460;5.710;2022-09-02T22:32:15;16.00;;;9.00;;
33022;SDS011;19390;51.460;5.710;2022-09-02T22:35:02;30.87;;;18.27;;
33022;SDS011;19390;51.460;5.710;2022-09-02T22:40:20;13.30;;;7.13;;
33022;SDS011;19390;51.460;5.710;2022-09-02T22:42:52;11.77;;;8.00;;
33022;SDS011;19390;51.460;5.710;2022-09-02T22:45:35;32.47;;;22.90;;
33022;SDS011;19390;51.460;5.710;2022-09-02T22:48:31;15.75;;;11.50;;
33022;SDS011;19390;51.460;5.710;2022-09-02T22:51:43;20.52;;;12.48;;
33022;SDS011;19390;51.460;5.710;2022-09-02T22:54:35;10.65;;;5.85;;
33022;SDS011;19390;51.460;5.710;2022-09-02T22:57:06;9.15;;;3.42;;
33022;SDS011;19390;51.460;5.710;2022-09-02T23:07:54;6.22;;;2.60;;
33022;SDS011;19390;51.460;5.710;2022-09-02T23:10:21;8.50;;;5.32;;
33022;SDS011;19390;51.460;5.710;2022-09-02T23:12:57;9.70;;;3.88;;
33022;SDS011;19390;51.460;5.710;2022-09-02T23:15:35;8.95;;;6.03;;
33022;SDS011;19390;51.460;5.710;2022-09-02T23:18:16;6.75;;;2.85;;
33022;SDS011;19390;51.460;5.710;2022-09-02T23:21:13;8.80;;;7.78;;
33022;SDS011;19390;51.460;5.710;2022-09-02T23:23:53;17.73;;;13.63;;
33022;SDS011;19390;51.460;5.710;2022-09-02T23:26:31;8.80;;;6.28;;
33022;SDS011;19390;51.460;5.710;2022-09-02T23:29:13;13.68;;;8.38;;
33022;SDS011;19390;51.460;5.710;2022-09-02T23:34:41;5.07;;;2.85;;
33022;SDS011;19390;51.460;5.710;2022-09-02T23:40:12;14.85;;;10.02;;
33022;SDS011;19390;51.460;5.710;2022-09-02T23:42:54;21.83;;;15.10;;
33022;SDS011;19390;51.460;5.710;2022-09-02T23:45:22;8.63;;;4.47;;
